createdAt,value
2018-10-01T00:00:52.341Z,949.53
2018-10-01T00:01:52.330Z,949.47
2018-10-01T00:02:52.317Z,949.47
2018-10-01T00:03:52.305Z,949.5
2018-10-01T00:04:52.290Z,949.49
2018-10-01T00:05:52.276Z,949.49
2018-10-01T00:06:52.265Z,949.49
2018-10-01T00:07:52.253Z,949.48
2018-10-01T00:08:52.239Z,949.47
2018-10-01T00:09:52.227Z,949.5
2018-10-01T00:10:52.214Z,949.49
2018-10-01T00:11:52.199Z,949.45
2018-10-01T00:12:52.186Z,949.42
2018-10-01T00:13:52.174Z,949.42
2018-10-01T00:14:52.162Z,949.4
2018-10-01T00:15:52.148Z,949.39
2018-10-01T00:16:52.136Z,949.4
2018-10-01T00:17:52.124Z,949.4
2018-10-01T00:18:52.112Z,949.41
2018-10-01T00:19:52.096Z,949.38
2018-10-01T00:20:52.085Z,949.37
2018-10-01T00:21:52.073Z,949.34
2018-10-01T00:22:52.062Z,949.33
2018-10-01T00:23:52.048Z,949.36
2018-10-01T00:24:52.034Z,949.35
2018-10-01T00:25:52.022Z,949.35
2018-10-01T00:26:52.013Z,949.31
2018-10-01T00:27:51.996Z,949.26
2018-10-01T00:28:51.984Z,949.29
2018-10-01T00:29:51.986Z,949.29
2018-10-01T00:30:51.959Z,949.26
2018-10-01T00:31:51.954Z,949.3
2018-10-01T00:32:51.936Z,949.26
2018-10-01T00:33:51.922Z,949.25
2018-10-01T00:34:51.910Z,949.24
2018-10-01T00:35:51.899Z,949.24
2018-10-01T00:36:51.887Z,949.19
2018-10-01T00:37:51.874Z,949.18
2018-10-01T00:38:51.863Z,949.19
2018-10-01T00:39:51.852Z,949.16
2018-10-01T00:40:51.839Z,949.18
2018-10-01T00:41:51.827Z,949.17
2018-10-01T00:42:51.815Z,949.15
2018-10-01T00:43:51.803Z,949.17
2018-10-01T00:44:51.790Z,949.17
2018-10-01T00:45:51.778Z,949.15
2018-10-01T00:46:51.766Z,949.14
2018-10-01T00:47:51.754Z,949.15
2018-10-01T00:48:51.740Z,949.13
2018-10-01T00:49:51.731Z,949.12
2018-10-01T00:50:51.718Z,949.11
2018-10-01T00:51:51.706Z,949.1
2018-10-01T00:52:51.694Z,949.06
2018-10-01T00:53:51.680Z,949.08
2018-10-01T00:54:51.671Z,949.07
2018-10-01T00:55:51.658Z,949.09
2018-10-01T00:56:51.647Z,949.11
2018-10-01T00:57:51.636Z,949.1
2018-10-01T00:58:51.624Z,949.08
2018-10-01T00:59:51.610Z,949.05
2018-10-01T01:00:51.598Z,949.05
2018-10-01T01:01:51.587Z,949.04
2018-10-01T01:02:51.575Z,949.03
2018-10-01T01:03:51.563Z,949.02
2018-10-01T01:04:51.561Z,949.05
2018-10-01T01:05:51.540Z,949.08
2018-10-01T01:06:51.528Z,949.01
2018-10-01T01:07:51.515Z,949.05
2018-10-01T01:08:51.512Z,949.06
2018-10-01T01:09:51.493Z,949.02
2018-10-01T01:10:51.481Z,949.01
2018-10-01T01:11:51.469Z,949.05
2018-10-01T01:12:51.459Z,949.02
2018-10-01T01:13:51.446Z,949.05
2018-10-01T01:14:51.434Z,949.03
2018-10-01T01:15:51.422Z,949.02
2018-10-01T01:16:51.410Z,949.01
2018-10-01T01:17:51.397Z,949.03
2018-10-01T01:18:51.389Z,949.01
2018-10-01T01:19:51.379Z,948.96
2018-10-01T01:20:51.365Z,948.95
2018-10-01T01:21:51.352Z,948.99
2018-10-01T01:22:51.339Z,949
2018-10-01T01:23:51.329Z,948.98
2018-10-01T01:24:51.316Z,948.97
2018-10-01T01:25:51.305Z,948.96
2018-10-01T01:26:51.292Z,948.98
2018-10-01T01:27:51.281Z,948.96
2018-10-01T01:28:51.270Z,948.99
2018-10-01T01:29:51.258Z,949.03
2018-10-01T01:30:51.247Z,949
2018-10-01T01:31:51.235Z,949.01
2018-10-01T01:32:51.223Z,949.02
2018-10-01T01:33:51.212Z,949.03
2018-10-01T01:34:51.199Z,948.94
2018-10-01T01:35:51.186Z,948.95
2018-10-01T01:36:51.177Z,948.94
2018-10-01T01:37:51.164Z,948.92
2018-10-01T01:38:51.155Z,948.93
2018-10-01T01:39:51.142Z,948.88
2018-10-01T01:40:51.130Z,948.93
2018-10-01T01:41:51.118Z,948.89
2018-10-01T01:42:51.107Z,948.89
2018-10-01T01:43:51.094Z,948.86
2018-10-01T01:44:51.084Z,948.85
2018-10-01T01:45:51.072Z,948.85
2018-10-01T01:46:51.062Z,948.84
2018-10-01T01:47:51.053Z,948.84
2018-10-01T01:48:51.038Z,948.83
2018-10-01T01:49:51.029Z,948.85
2018-10-01T01:50:51.017Z,948.86
2018-10-01T01:51:51.002Z,948.79
2018-10-01T01:52:50.990Z,948.84
2018-10-01T01:53:50.979Z,948.8
2018-10-01T01:54:50.967Z,948.83
2018-10-01T01:55:50.954Z,948.84
2018-10-01T01:56:50.944Z,948.82
2018-10-01T01:57:50.932Z,948.76
2018-10-01T01:58:50.919Z,948.78
2018-10-01T01:59:50.909Z,948.78
2018-10-01T02:00:50.897Z,948.76
2018-10-01T02:01:50.888Z,948.8
2018-10-01T02:02:50.877Z,948.86
2018-10-01T02:03:50.863Z,948.81
2018-10-01T02:04:50.851Z,948.82
2018-10-01T02:05:50.838Z,948.79
2018-10-01T02:06:50.826Z,948.82
2018-10-01T02:07:50.814Z,948.76
2018-10-01T02:08:50.801Z,948.72
2018-10-01T02:09:50.789Z,948.69
2018-10-01T02:10:50.777Z,948.72
2018-10-01T02:11:50.765Z,948.68
2018-10-01T02:12:50.753Z,948.66
2018-10-01T02:13:50.740Z,948.62
2018-10-01T02:14:50.730Z,948.54
2018-10-01T02:15:50.717Z,948.59
2018-10-01T02:16:50.704Z,948.58
2018-10-01T02:17:50.692Z,948.54
2018-10-01T02:18:50.681Z,948.54
2018-10-01T02:19:50.666Z,948.56
2018-10-01T02:20:50.654Z,948.55
2018-10-01T02:21:50.642Z,948.56
2018-10-01T02:22:50.630Z,948.54
2018-10-01T02:23:50.617Z,948.55
2018-10-01T02:24:50.604Z,948.53
2018-10-01T02:25:50.593Z,948.55
2018-10-01T02:26:50.580Z,948.47
2018-10-01T02:27:50.568Z,948.5
2018-10-01T02:28:50.555Z,948.53
2018-10-01T02:29:50.543Z,948.57
2018-10-01T02:30:50.530Z,948.6
2018-10-01T02:31:50.516Z,948.62
2018-10-01T02:32:50.504Z,948.61
2018-10-01T02:33:50.494Z,948.66
2018-10-01T02:34:50.479Z,948.7
2018-10-01T02:35:50.465Z,948.71
2018-10-01T02:36:50.454Z,948.74
2018-10-01T02:37:50.440Z,948.71
2018-10-01T02:38:50.426Z,948.66
2018-10-01T02:39:50.413Z,948.66
2018-10-01T02:40:50.403Z,948.65
2018-10-01T02:41:50.386Z,948.64
2018-10-01T02:42:50.376Z,948.66
2018-10-01T02:43:50.365Z,948.58
2018-10-01T02:44:50.350Z,948.53
2018-10-01T02:45:50.333Z,948.52
2018-10-01T02:46:50.322Z,948.49
2018-10-01T02:47:50.345Z,948.49
2018-10-01T02:48:50.298Z,948.48
2018-10-01T02:49:50.282Z,948.48
2018-10-01T02:50:50.270Z,948.47
2018-10-01T02:51:50.257Z,948.49
2018-10-01T02:52:50.244Z,948.48
2018-10-01T02:53:50.230Z,948.48
2018-10-01T02:54:50.218Z,948.5
2018-10-01T02:55:50.203Z,948.55
2018-10-01T02:56:50.189Z,948.55
2018-10-01T02:57:50.177Z,948.54
2018-10-01T02:58:50.164Z,948.49
2018-10-01T02:59:50.148Z,948.48
2018-10-01T03:00:50.137Z,948.45
2018-10-01T03:01:50.123Z,948.47
2018-10-01T03:02:50.111Z,948.45
2018-10-01T03:03:50.096Z,948.51
2018-10-01T03:04:50.082Z,948.51
2018-10-01T03:05:50.071Z,948.57
2018-10-01T03:06:50.055Z,948.55
2018-10-01T03:07:50.041Z,948.56
2018-10-01T03:08:50.028Z,948.63
2018-10-01T03:09:50.050Z,948.63
2018-10-01T03:10:50.062Z,948.67
2018-10-01T03:11:49.985Z,948.67
2018-10-01T03:12:49.974Z,948.68
2018-10-01T03:13:49.961Z,948.65
2018-10-01T03:14:49.945Z,948.64
2018-10-01T03:15:49.933Z,948.61
2018-10-01T03:16:49.926Z,948.62
2018-10-01T03:17:49.905Z,948.64
2018-10-01T03:18:49.895Z,948.7
2018-10-01T03:19:49.877Z,948.71
2018-10-01T03:20:49.864Z,948.7
2018-10-01T03:21:49.848Z,948.71
2018-10-01T03:22:49.835Z,948.68
2018-10-01T03:23:49.821Z,948.69
2018-10-01T03:24:49.808Z,948.65
2018-10-01T03:25:49.793Z,948.64
2018-10-01T03:26:49.779Z,948.65
2018-10-01T03:27:49.766Z,948.64
2018-10-01T03:28:49.752Z,948.66
2018-10-01T03:29:49.738Z,948.68
2018-10-01T03:30:49.728Z,948.65
2018-10-01T03:31:49.710Z,948.65
2018-10-01T03:32:49.700Z,948.65
2018-10-01T03:33:49.683Z,948.66
2018-10-01T03:34:49.667Z,948.64
2018-10-01T03:35:49.657Z,948.66
2018-10-01T03:36:49.638Z,948.67
2018-10-01T03:37:49.630Z,948.66
2018-10-01T03:38:49.618Z,948.66
2018-10-01T03:39:49.597Z,948.7
2018-10-01T03:40:49.583Z,948.73
2018-10-01T03:41:49.568Z,948.67
2018-10-01T03:42:49.555Z,948.68
2018-10-01T03:43:49.540Z,948.74
2018-10-01T03:44:49.525Z,948.68
2018-10-01T03:45:49.513Z,948.7
2018-10-01T03:46:49.523Z,948.7
2018-10-01T03:47:49.483Z,948.67
2018-10-01T03:48:49.472Z,948.72
2018-10-01T03:49:49.455Z,948.69
2018-10-01T03:50:49.442Z,948.68
2018-10-01T03:51:49.425Z,948.68
2018-10-01T03:52:49.412Z,948.7
2018-10-01T03:53:49.398Z,948.69
2018-10-01T03:54:49.387Z,948.68
2018-10-01T03:55:49.379Z,948.69
2018-10-01T03:56:49.356Z,948.65
2018-10-01T03:57:49.340Z,948.6
2018-10-01T03:58:49.325Z,948.61
2018-10-01T03:59:49.310Z,948.64
2018-10-01T04:00:49.299Z,948.69
2018-10-01T04:01:49.283Z,948.64
2018-10-01T04:02:49.329Z,948.63
2018-10-01T04:03:49.254Z,948.6
2018-10-01T04:04:49.239Z,948.67
2018-10-01T04:05:49.225Z,948.62
2018-10-01T04:06:49.209Z,948.65
2018-10-01T04:07:49.194Z,948.67
2018-10-01T04:08:49.203Z,948.65
2018-10-01T04:09:49.166Z,948.64
2018-10-01T04:10:49.153Z,948.63
2018-10-01T04:11:49.137Z,948.65
2018-10-01T04:12:49.122Z,948.69
2018-10-01T04:13:49.106Z,948.67
2018-10-01T04:14:49.092Z,948.74
2018-10-01T04:15:49.078Z,948.79
2018-10-01T04:16:49.063Z,948.81
2018-10-01T04:17:49.048Z,948.76
2018-10-01T04:18:49.034Z,948.79
2018-10-01T04:19:49.020Z,948.77
2018-10-01T04:20:49.004Z,948.77
2018-10-01T04:21:48.989Z,948.71
2018-10-01T04:22:49.048Z,948.7
2018-10-01T04:23:48.960Z,948.64
2018-10-01T04:24:48.945Z,948.62
2018-10-01T04:25:48.932Z,948.63
2018-10-01T04:26:48.918Z,948.61
2018-10-01T04:27:48.904Z,948.53
2018-10-01T04:28:48.888Z,948.53
2018-10-01T04:29:48.873Z,948.57
2018-10-01T04:30:48.969Z,948.57
2018-10-01T04:31:48.847Z,948.6
2018-10-01T04:32:48.829Z,948.61
2018-10-01T04:33:48.815Z,948.6
2018-10-01T04:34:48.798Z,948.6
2018-10-01T04:35:48.784Z,948.57
2018-10-01T04:36:48.769Z,948.6
2018-10-01T04:37:48.756Z,948.61
2018-10-01T04:38:48.741Z,948.63
2018-10-01T04:39:48.725Z,948.59
2018-10-01T04:40:48.778Z,948.6
2018-10-01T04:41:48.696Z,948.62
2018-10-01T04:42:48.681Z,948.62
2018-10-01T04:43:48.667Z,948.63
2018-10-01T04:44:48.652Z,948.63
2018-10-01T04:45:48.636Z,948.63
2018-10-01T04:46:48.635Z,948.67
2018-10-01T04:47:48.607Z,948.69
2018-10-01T04:48:48.595Z,948.78
2018-10-01T04:49:48.578Z,948.86
2018-10-01T04:50:48.564Z,948.87
2018-10-01T04:51:48.550Z,948.95
2018-10-01T04:52:48.536Z,948.89
2018-10-01T04:53:48.520Z,948.88
2018-10-01T04:54:48.508Z,948.85
2018-10-01T04:55:48.493Z,948.87
2018-10-01T04:56:48.477Z,948.87
2018-10-01T04:57:48.462Z,948.9
2018-10-01T04:58:48.447Z,948.91
2018-10-01T04:59:48.434Z,948.96
2018-10-01T05:00:48.419Z,949.01
2018-10-01T05:01:48.403Z,949.02
2018-10-01T05:02:48.389Z,949.01
2018-10-01T05:03:48.376Z,948.98
2018-10-01T05:04:48.362Z,948.97
2018-10-01T05:05:48.347Z,948.98
2018-10-01T05:06:48.332Z,949.02
2018-10-01T05:07:48.317Z,949.02
2018-10-01T05:08:48.303Z,949
2018-10-01T05:09:48.287Z,949.01
2018-10-01T05:10:48.280Z,948.99
2018-10-01T05:11:48.259Z,948.96
2018-10-01T05:12:48.244Z,948.93
2018-10-01T05:13:48.230Z,948.91
2018-10-01T05:14:48.288Z,948.9
2018-10-01T05:15:48.201Z,948.94
2018-10-01T05:16:48.186Z,948.96
2018-10-01T05:17:48.172Z,949
2018-10-01T05:18:48.164Z,948.99
2018-10-01T05:19:48.143Z,948.99
2018-10-01T05:20:48.130Z,949
2018-10-01T05:21:48.116Z,949.06
2018-10-01T05:22:48.100Z,949.05
2018-10-01T05:23:48.090Z,949.04
2018-10-01T05:24:48.076Z,949.03
2018-10-01T05:25:48.059Z,949.06
2018-10-01T05:26:48.043Z,949.05
2018-10-01T05:27:48.031Z,949.03
2018-10-01T05:28:48.015Z,949.03
2018-10-01T05:29:48.000Z,949.08
2018-10-01T05:30:47.985Z,949.09
2018-10-01T05:31:47.972Z,949.09
2018-10-01T05:32:47.958Z,949.09
2018-10-01T05:33:47.944Z,949.11
2018-10-01T05:34:47.929Z,949.18
2018-10-01T05:35:47.915Z,949.16
2018-10-01T05:36:47.902Z,949.16
2018-10-01T05:37:47.947Z,949.15
2018-10-01T05:38:47.871Z,949.17
2018-10-01T05:39:47.858Z,949.19
2018-10-01T05:40:47.843Z,949.2
2018-10-01T05:41:47.828Z,949.25
2018-10-01T05:42:47.820Z,949.29
2018-10-01T05:43:47.801Z,949.29
2018-10-01T05:44:47.786Z,949.37
2018-10-01T05:45:47.773Z,949.37
2018-10-01T05:46:47.760Z,949.44
2018-10-01T05:47:47.745Z,949.44
2018-10-01T05:48:47.730Z,949.46
2018-10-01T05:49:47.717Z,949.48
2018-10-01T05:50:47.704Z,949.48
2018-10-01T05:51:47.689Z,949.45
2018-10-01T05:52:47.675Z,949.43
2018-10-01T05:53:47.669Z,949.44
2018-10-01T05:54:47.648Z,949.46
2018-10-01T05:55:47.633Z,949.44
2018-10-01T05:56:47.618Z,949.44
2018-10-01T05:57:47.685Z,949.47
2018-10-01T05:58:47.593Z,949.47
2018-10-01T05:59:47.613Z,949.47
2018-10-01T06:00:47.566Z,949.47
2018-10-01T06:01:47.552Z,949.47
2018-10-01T06:02:47.541Z,949.47
2018-10-01T06:03:47.525Z,949.48
2018-10-01T06:04:47.571Z,949.48
2018-10-01T06:05:47.503Z,949.49
2018-10-01T06:06:47.484Z,949.51
2018-10-01T06:07:47.470Z,949.54
2018-10-01T06:08:47.457Z,949.5
2018-10-01T06:09:47.444Z,949.54
2018-10-01T06:10:47.430Z,949.57
2018-10-01T06:11:47.422Z,949.56
2018-10-01T06:12:47.405Z,949.53
2018-10-01T06:13:47.392Z,949.56
2018-10-01T06:14:47.378Z,949.55
2018-10-01T06:15:47.366Z,949.5
2018-10-01T06:16:47.354Z,949.49
2018-10-01T06:17:47.340Z,949.45
2018-10-01T06:18:47.330Z,949.53
2018-10-01T06:19:47.315Z,949.56
2018-10-01T06:20:47.301Z,949.61
2018-10-01T06:21:47.289Z,949.61
2018-10-01T06:22:47.287Z,949.61
2018-10-01T06:23:47.265Z,949.63
2018-10-01T06:24:47.251Z,949.64
2018-10-01T06:25:47.241Z,949.61
2018-10-01T06:26:47.227Z,949.66
2018-10-01T06:27:47.214Z,949.7
2018-10-01T06:28:47.201Z,949.74
2018-10-01T06:29:47.189Z,949.8
2018-10-01T06:30:47.177Z,949.79
2018-10-01T06:31:47.163Z,949.85
2018-10-01T06:32:47.151Z,949.87
2018-10-01T06:33:47.140Z,949.9
2018-10-01T06:34:47.127Z,949.94
2018-10-01T06:35:47.113Z,949.97
2018-10-01T06:36:47.101Z,949.96
2018-10-01T06:37:47.091Z,949.96
2018-10-01T06:38:47.080Z,949.99
2018-10-01T06:39:47.064Z,949.98
2018-10-01T06:40:47.052Z,949.95
2018-10-01T06:41:47.139Z,949.97
2018-10-01T06:42:47.034Z,950.01
2018-10-01T06:43:47.015Z,950.04
2018-10-01T06:44:47.010Z,950.05
2018-10-01T06:45:46.992Z,950.07
2018-10-01T06:46:46.979Z,950.07
2018-10-01T06:47:46.971Z,950.07
2018-10-01T06:48:46.966Z,950.07
2018-10-01T06:49:46.942Z,950.15
2018-10-01T06:50:46.949Z,950.13
2018-10-01T06:51:46.918Z,950.14
2018-10-01T06:52:46.907Z,950.15
2018-10-01T06:53:46.893Z,950.18
2018-10-01T06:54:46.882Z,950.17
2018-10-01T06:55:46.870Z,950.18
2018-10-01T06:56:46.857Z,950.17
2018-10-01T06:57:46.845Z,950.14
2018-10-01T06:58:46.832Z,950.16
2018-10-01T06:59:46.821Z,950.19
2018-10-01T07:00:46.809Z,950.16
2018-10-01T07:01:46.797Z,950.17
2018-10-01T07:02:46.783Z,950.19
2018-10-01T07:03:46.772Z,950.2
2018-10-01T07:04:46.759Z,950.19
2018-10-01T07:05:46.813Z,950.23
2018-10-01T07:06:46.783Z,950.21
2018-10-01T07:07:46.723Z,950.23
2018-10-01T07:08:46.718Z,950.22
2018-10-01T07:09:46.697Z,950.21
2018-10-01T07:10:46.685Z,950.21
2018-10-01T07:11:46.718Z,950.21
2018-10-01T07:12:46.662Z,950.2
2018-10-01T07:13:46.654Z,950.21
2018-10-01T07:14:46.638Z,950.23
2018-10-01T07:15:46.625Z,950.21
2018-10-01T07:16:46.681Z,950.23
2018-10-01T07:17:46.602Z,950.23
2018-10-01T07:18:46.591Z,950.26
2018-10-01T07:19:46.577Z,950.26
2018-10-01T07:20:46.568Z,950.3
2018-10-01T07:21:46.554Z,950.3
2018-10-01T07:22:46.578Z,950.31
2018-10-01T07:23:46.533Z,950.32
2018-10-01T07:24:46.522Z,950.29
2018-10-01T07:25:46.510Z,950.33
2018-10-01T07:26:46.497Z,950.4
2018-10-01T07:27:46.486Z,950.4
2018-10-01T07:28:46.475Z,950.41
2018-10-01T07:29:46.463Z,950.43
2018-10-01T07:30:46.451Z,950.4
2018-10-01T07:31:46.441Z,950.41
2018-10-01T07:32:46.430Z,950.38
2018-10-01T07:33:46.417Z,950.4
2018-10-01T07:34:46.408Z,950.38
2018-10-01T07:35:46.397Z,950.33
2018-10-01T07:36:46.385Z,950.32
2018-10-01T07:37:46.376Z,950.28
2018-10-01T07:38:46.399Z,950.28
2018-10-01T07:39:46.352Z,950.25
2018-10-01T07:40:46.340Z,950.27
2018-10-01T07:41:46.329Z,950.32
2018-10-01T07:42:46.317Z,950.31
2018-10-01T07:43:46.307Z,950.36
2018-10-01T07:44:46.375Z,950.34
2018-10-01T07:45:46.285Z,950.38
2018-10-01T07:46:46.290Z,950.37
2018-10-01T07:47:46.264Z,950.42
2018-10-01T07:48:46.252Z,950.45
2018-10-01T07:49:46.242Z,950.42
2018-10-01T07:50:46.306Z,950.46
2018-10-01T07:51:46.251Z,950.45
2018-10-01T07:52:46.216Z,950.45
2018-10-01T07:53:46.210Z,950.46
2018-10-01T07:54:46.188Z,950.53
2018-10-01T07:55:46.176Z,950.53
2018-10-01T07:56:46.165Z,950.54
2018-10-01T07:57:46.156Z,950.52
2018-10-01T07:58:46.145Z,950.54
2018-10-01T07:59:46.295Z,950.55
2018-10-01T08:00:46.125Z,950.56
2018-10-01T08:01:46.117Z,950.6
2018-10-01T08:02:46.110Z,950.54
2018-10-01T08:03:46.095Z,950.61
2018-10-01T08:04:46.082Z,950.63
2018-10-01T08:05:46.071Z,950.58
2018-10-01T08:06:46.060Z,950.61
2018-10-01T08:07:46.051Z,950.63
2018-10-01T08:08:46.041Z,950.57
2018-10-01T08:09:46.029Z,950.62
2018-10-01T08:10:46.019Z,950.64
2018-10-01T08:11:46.009Z,950.64
2018-10-01T08:12:45.997Z,950.65
2018-10-01T08:13:45.989Z,950.6
2018-10-01T08:14:45.977Z,950.64
2018-10-01T08:15:46.021Z,950.64
2018-10-01T08:16:45.958Z,950.61
2018-10-01T08:17:45.948Z,950.62
2018-10-01T08:18:45.936Z,950.67
2018-10-01T08:19:45.928Z,950.7
2018-10-01T08:20:45.919Z,950.68
2018-10-01T08:21:45.906Z,950.68
2018-10-01T08:22:45.897Z,950.66
2018-10-01T08:23:45.887Z,950.71
2018-10-01T08:24:45.878Z,950.69
2018-10-01T08:25:45.866Z,950.68
2018-10-01T08:26:45.858Z,950.71
2018-10-01T08:27:45.848Z,950.69
2018-10-01T08:28:45.837Z,950.74
2018-10-01T08:29:45.947Z,950.73
2018-10-01T08:30:45.816Z,950.74
2018-10-01T08:31:45.807Z,950.76
2018-10-01T08:32:45.797Z,950.76
2018-10-01T08:33:45.787Z,950.77
2018-10-01T08:34:45.778Z,950.78
2018-10-01T08:35:45.768Z,950.77
2018-10-01T08:36:45.758Z,950.8
2018-10-01T08:37:45.747Z,950.8
2018-10-01T08:38:45.897Z,950.84
2018-10-01T08:39:45.727Z,950.82
2018-10-01T08:40:45.718Z,950.81
2018-10-01T08:41:45.708Z,950.79
2018-10-01T08:42:45.709Z,950.81
2018-10-01T08:43:45.688Z,950.81
2018-10-01T08:44:45.679Z,950.82
2018-10-01T08:45:45.670Z,950.86
2018-10-01T08:46:45.660Z,950.82
2018-10-01T08:47:45.700Z,950.81
2018-10-01T08:48:45.640Z,950.84
2018-10-01T08:49:45.633Z,950.8
2018-10-01T08:50:45.619Z,950.78
2018-10-01T08:51:45.678Z,950.77
2018-10-01T08:52:45.603Z,950.8
2018-10-01T08:53:45.593Z,950.8
2018-10-01T08:54:45.582Z,950.79
2018-10-01T08:55:45.575Z,950.75
2018-10-01T08:56:45.568Z,950.79
2018-10-01T08:57:45.555Z,950.78
2018-10-01T08:58:45.546Z,950.82
2018-10-01T08:59:45.538Z,950.84
2018-10-01T09:00:45.526Z,950.83
2018-10-01T09:01:45.517Z,950.84
2018-10-01T09:02:45.508Z,950.86
2018-10-01T09:03:45.499Z,950.84
2018-10-01T09:04:45.490Z,950.8
2018-10-01T09:05:45.479Z,950.8
2018-10-01T09:06:45.514Z,950.82
2018-10-01T09:07:45.462Z,950.82
2018-10-01T09:08:45.452Z,950.83
2018-10-01T09:09:45.445Z,950.8
2018-10-01T09:10:45.440Z,950.79
2018-10-01T09:11:45.426Z,950.8
2018-10-01T09:12:45.415Z,950.82
2018-10-01T09:13:45.407Z,950.8
2018-10-01T09:14:45.490Z,950.79
2018-10-01T09:15:45.389Z,950.77
2018-10-01T09:16:45.380Z,950.81
2018-10-01T09:17:45.371Z,950.8
2018-10-01T09:18:45.361Z,950.78
2018-10-01T09:19:45.353Z,950.8
2018-10-01T09:20:45.345Z,950.79
2018-10-01T09:21:45.335Z,950.83
2018-10-01T09:22:45.326Z,950.78
2018-10-01T09:23:45.316Z,950.79
2018-10-01T09:24:45.308Z,950.77
2018-10-01T09:25:45.300Z,950.78
2018-10-01T09:26:45.291Z,950.8
2018-10-01T09:27:45.281Z,950.82
2018-10-01T09:28:45.274Z,950.79
2018-10-01T09:29:45.267Z,950.77
2018-10-01T09:30:45.256Z,950.78
2018-10-01T09:31:45.246Z,950.8
2018-10-01T09:32:45.238Z,950.78
2018-10-01T09:33:45.230Z,950.79
2018-10-01T09:34:45.224Z,950.79
2018-10-01T09:35:45.212Z,950.84
2018-10-01T09:36:45.203Z,950.86
2018-10-01T09:37:45.196Z,950.86
2018-10-01T09:38:45.186Z,950.86
2018-10-01T09:39:45.181Z,950.89
2018-10-01T09:40:45.171Z,950.85
2018-10-01T09:41:45.160Z,950.86
2018-10-01T09:42:45.154Z,950.84
2018-10-01T09:43:45.145Z,950.84
2018-10-01T09:44:45.137Z,950.88
2018-10-01T09:45:45.128Z,950.85
2018-10-01T09:46:45.118Z,950.85
2018-10-01T09:47:45.111Z,950.85
2018-10-01T09:48:45.104Z,950.89
2018-10-01T09:49:45.093Z,950.9
2018-10-01T09:50:45.085Z,950.88
2018-10-01T09:51:45.076Z,950.88
2018-10-01T09:52:45.069Z,950.88
2018-10-01T09:53:45.128Z,950.91
2018-10-01T09:54:45.051Z,950.9
2018-10-01T09:55:45.043Z,950.97
2018-10-01T09:56:45.036Z,950.93
2018-10-01T09:57:45.027Z,950.9
2018-10-01T09:58:45.018Z,950.91
2018-10-01T09:59:45.010Z,950.92
2018-10-01T10:00:45.001Z,950.91
2018-10-01T10:01:44.997Z,950.85
2018-10-01T10:02:44.984Z,950.89
2018-10-01T10:03:44.978Z,950.9
2018-10-01T10:04:45.029Z,950.87
2018-10-01T10:05:44.968Z,950.9
2018-10-01T10:06:44.954Z,950.89
2018-10-01T10:07:44.942Z,950.87
2018-10-01T10:08:44.933Z,950.9
2018-10-01T10:09:44.925Z,950.91
2018-10-01T10:10:44.918Z,950.88
2018-10-01T10:11:44.909Z,950.9
2018-10-01T10:12:44.904Z,950.87
2018-10-01T10:13:44.893Z,950.92
2018-10-01T10:14:44.884Z,950.92
2018-10-01T10:15:44.875Z,950.92
2018-10-01T10:16:45.017Z,950.98
2018-10-01T10:17:44.862Z,950.95
2018-10-01T10:18:44.849Z,950.97
2018-10-01T10:19:44.842Z,951.01
2018-10-01T10:20:44.834Z,951.01
2018-10-01T10:21:44.825Z,951.05
2018-10-01T10:22:44.815Z,951.03
2018-10-01T10:23:44.807Z,951.04
2018-10-01T10:24:44.800Z,951.08
2018-10-01T10:25:44.792Z,951.09
2018-10-01T10:26:44.783Z,951.15
2018-10-01T10:27:44.773Z,951.13
2018-10-01T10:28:44.766Z,951.16
2018-10-01T10:29:44.756Z,951.17
2018-10-01T10:30:44.748Z,951.15
2018-10-01T10:31:44.741Z,951.12
2018-10-01T10:32:44.733Z,951.19
2018-10-01T10:33:44.723Z,951.2
2018-10-01T10:34:44.717Z,951.2
2018-10-01T10:35:44.712Z,951.19
2018-10-01T10:36:44.699Z,951.24
2018-10-01T10:37:44.690Z,951.28
2018-10-01T10:38:44.684Z,951.28
2018-10-01T10:39:44.675Z,951.2
2018-10-01T10:40:44.666Z,951.21
2018-10-01T10:41:44.723Z,951.25
2018-10-01T10:42:44.651Z,951.26
2018-10-01T10:43:44.642Z,951.18
2018-10-01T10:44:44.635Z,951.24
2018-10-01T10:45:44.627Z,951.26
2018-10-01T10:46:44.623Z,951.25
2018-10-01T10:47:44.611Z,951.25
2018-10-01T10:48:44.603Z,951.27
2018-10-01T10:49:44.595Z,951.29
2018-10-01T10:50:44.588Z,951.25
2018-10-01T10:51:44.578Z,951.31
2018-10-01T10:52:44.571Z,951.3
2018-10-01T10:53:44.562Z,951.34
2018-10-01T10:54:44.553Z,951.33
2018-10-01T10:55:44.546Z,951.3
2018-10-01T10:56:44.539Z,951.3
2018-10-01T10:57:44.530Z,951.29
2018-10-01T10:58:44.520Z,951.29
2018-10-01T10:59:44.512Z,951.28
2018-10-01T11:00:44.506Z,951.3
2018-10-01T11:01:44.498Z,951.24
2018-10-01T11:02:44.489Z,951.22
2018-10-01T11:03:44.482Z,951.24
2018-10-01T11:04:44.474Z,951.24
2018-10-01T11:05:44.464Z,951.24
2018-10-01T11:06:44.458Z,951.23
2018-10-01T11:07:44.449Z,951.27
2018-10-01T11:08:44.442Z,951.19
2018-10-01T11:09:44.433Z,951.21
2018-10-01T11:10:44.425Z,951.17
2018-10-01T11:11:44.417Z,951.23
2018-10-01T11:12:44.410Z,951.21
2018-10-01T11:13:44.411Z,951.19
2018-10-01T11:14:44.501Z,951.18
2018-10-01T11:15:44.390Z,951.25
2018-10-01T11:16:44.379Z,951.2
2018-10-01T11:17:44.403Z,951.24
2018-10-01T11:18:44.393Z,951.24
2018-10-01T11:19:44.426Z,951.23
2018-10-01T11:20:44.370Z,951.24
2018-10-01T11:21:44.577Z,951.26
2018-10-01T11:22:44.350Z,951.27
2018-10-01T11:23:44.333Z,951.26
2018-10-01T11:24:44.318Z,951.25
2018-10-01T11:25:44.310Z,951.27
2018-10-01T11:26:44.359Z,951.2
2018-10-01T11:27:44.390Z,951.21
2018-10-01T11:28:44.320Z,951.24
2018-10-01T11:29:44.281Z,951.19
2018-10-01T11:30:44.274Z,951.23
2018-10-01T11:31:44.495Z,951.17
2018-10-01T11:32:44.258Z,951.22
2018-10-01T11:33:44.401Z,951.19
2018-10-01T11:34:44.282Z,951.24
2018-10-01T11:35:44.237Z,951.23
2018-10-01T11:36:44.229Z,951.22
2018-10-01T11:37:44.222Z,951.23
2018-10-01T11:38:44.214Z,951.26
2018-10-01T11:39:44.270Z,951.23
2018-10-01T11:40:44.202Z,951.28
2018-10-01T11:41:44.193Z,951.2
2018-10-01T11:42:44.184Z,951.19
2018-10-01T11:43:44.177Z,951.22
2018-10-01T11:44:44.169Z,951.21
2018-10-01T11:45:44.297Z,951.23
2018-10-01T11:46:44.153Z,951.23
2018-10-01T11:47:44.146Z,951.27
2018-10-01T11:48:44.138Z,951.28
2018-10-01T11:49:44.130Z,951.3
2018-10-01T11:50:44.122Z,951.27
2018-10-01T11:51:44.271Z,951.26
2018-10-01T11:52:44.108Z,951.24
2018-10-01T11:53:44.099Z,951.26
2018-10-01T11:54:44.088Z,951.32
2018-10-01T11:55:44.081Z,951.3
2018-10-01T11:56:44.072Z,951.31
2018-10-01T11:57:44.151Z,951.31
2018-10-01T11:58:44.056Z,951.31
2018-10-01T11:59:44.046Z,951.34
2018-10-01T12:00:44.037Z,951.32
2018-10-01T12:01:44.032Z,951.34
2018-10-01T12:02:44.021Z,951.33
2018-10-01T12:03:44.101Z,951.32
2018-10-01T12:04:44.002Z,951.29
2018-10-01T12:05:43.995Z,951.27
2018-10-01T12:06:43.991Z,951.28
2018-10-01T12:07:43.977Z,951.26
2018-10-01T12:08:43.969Z,951.28
2018-10-01T12:09:44.082Z,951.31
2018-10-01T12:10:43.952Z,951.3
2018-10-01T12:11:43.945Z,951.31
2018-10-01T12:12:43.950Z,951.25
2018-10-01T12:13:43.936Z,951.26
2018-10-01T12:14:43.915Z,951.26
2018-10-01T12:15:43.967Z,951.29
2018-10-01T12:16:43.897Z,951.32
2018-10-01T12:17:43.889Z,951.28
2018-10-01T12:18:43.879Z,951.31
2018-10-01T12:19:43.872Z,951.31
2018-10-01T12:20:43.863Z,951.32
2018-10-01T12:21:44.028Z,951.31
2018-10-01T12:22:43.846Z,951.33
2018-10-01T12:23:43.849Z,951.38
2018-10-01T12:24:43.828Z,951.37
2018-10-01T12:25:43.817Z,951.39
2018-10-01T12:26:43.805Z,951.36
2018-10-01T12:27:43.825Z,951.34
2018-10-01T12:28:43.787Z,951.37
2018-10-01T12:29:43.777Z,951.36
2018-10-01T12:30:43.769Z,951.36
2018-10-01T12:31:43.759Z,951.41